Time;durP1;ratioP1;P1;durP2;ratioP2;P2;SDS_P1;SDS_P2;PMS_P1;PMS_P2;Temp;Humidity;BMP_temperature;BMP_pressure;BME280_temperature;BME280_humidity;BME280_pressure;Samples;Min_cycle;Max_cycle;Signal;HPM_P1;HPM_P2
2024/01/12 00:00:00;;;;;;;60.90;23.57;;;;;;;0.86;100.00;101805.63;5036705;28;20235;-77
2024/01/12 00:02:26;;;;;;;62.23;21.77;;;;;;;0.70;100.00;101811.78;5037158;28;20215;-78
2024/01/12 00:04:53;;;;;;;61.50;21.90;;;;;;;0.70;100.00;101804.09;5037668;28;20245;-80
2024/01/12 00:07:20;;;;;;;59.63;23.17;;;;;;;0.71;100.00;101803.25;5037089;28;20203;-78
2024/01/12 00:09:47;;;;;;;67.37;21.97;;;;;;;0.74;100.00;101794.00;5034135;28;20200;-81
2024/01/12 00:12:13;;;;;;;68.77;23.37;;;;;;;0.73;100.00;101788.78;5015673;28;20203;-82
2024/01/12 00:14:39;;;;;;;58.33;22.93;;;;;;;0.85;100.00;101783.28;5015748;28;20292;-83
2024/01/12 00:17:06;;;;;;;58.43;22.23;;;;;;;0.70;100.00;101786.09;5014329;28;20207;-82
2024/01/12 00:19:32;;;;;;;75.80;23.57;;;;;;;0.71;100.00;101781.00;5015877;28;20231;-83
2024/01/12 00:21:58;;;;;;;68.47;25.50;;;;;;;0.82;100.00;101775.47;5015407;28;20265;-82
2024/01/12 00:24:26;;;;;;;73.60;24.93;;;;;;;0.81;100.00;101776.25;5014738;28;20203;-81
2024/01/12 00:26:52;;;;;;;84.07;25.97;;;;;;;0.70;100.00;101773.25;5013814;28;20737;-81
2024/01/12 00:29:19;;;;;;;87.13;26.17;;;;;;;0.78;100.00;101765.03;5014916;28;20729;-83
2024/01/12 00:31:46;;;;;;;78.43;26.67;;;;;;;0.72;100.00;101762.22;5014889;28;20664;-83
2024/01/12 00:34:12;;;;;;;103.10;27.87;;;;;;;0.66;100.00;101761.09;5015006;28;20261;-82
2024/01/12 00:36:39;;;;;;;88.97;26.57;;;;;;;0.78;100.00;101761.59;5014538;28;20230;-81
2024/01/12 00:39:05;;;;;;;92.43;26.57;;;;;;;0.78;100.00;101747.06;5015244;28;20277;-79
2024/01/12 00:41:33;;;;;;;99.93;27.90;;;;;;;0.70;100.00;101750.13;5015321;28;20204;-82
2024/01/12 00:44:01;;;;;;;98.33;28.17;;;;;;;0.71;100.00;101739.00;5014677;28;20238;-78
2024/01/12 00:46:27;;;;;;;101.90;28.30;;;;;;;0.65;100.00;101744.75;5014272;28;20226;-81
2024/01/12 00:48:54;;;;;;;102.03;28.27;;;;;;;0.71;100.00;101741.59;5014269;28;20206;-80
2024/01/12 00:51:20;;;;;;;98.53;27.50;;;;;;;0.66;100.00;101736.25;5008592;28;20260;-82
2024/01/12 00:53:46;;;;;;;91.03;27.37;;;;;;;0.62;100.00;101718.09;5014163;28;20634;-81
2024/01/12 00:56:13;;;;;;;98.77;27.10;;;;;;;0.71;100.00;101716.75;5018796;28;20258;-80
2024/01/12 00:58:40;;;;;;;93.33;27.17;;;;;;;0.85;100.00;101719.91;5016949;28;20226;-79
2024/01/12 01:01:07;;;;;;;94.20;27.00;;;;;;;0.78;100.00;101723.06;5020318;28;20211;-79
2024/01/12 01:03:34;;;;;;;88.90;26.37;;;;;;;0.71;100.00;101728.72;5025421;28;20207;-82
2024/01/12 01:06:00;;;;;;;95.97;28.37;;;;;;;0.69;100.00;101712.38;5018571;28;20661;-83
2024/01/12 01:08:26;;;;;;;100.13;28.60;;;;;;;0.60;100.00;101723.16;5017177;28;20211;-78
2024/01/12 01:10:52;;;;;;;91.33;29.13;;;;;;;0.65;100.00;101719.06;5017598;28;20618;-81
2024/01/12 01:13:19;;;;;;;90.93;30.27;;;;;;;0.64;100.00;101717.34;5017477;28;20675;-81
2024/01/12 01:15:47;;;;;;;93.83;27.80;;;;;;;0.61;100.00;101714.63;5017523;28;20228;-80
2024/01/12 01:18:15;;;;;;;86.27;26.97;;;;;;;0.66;100.00;101718.28;5016338;28;20257;-81
2024/01/12 01:20:41;;;;;;;96.63;27.37;;;;;;;0.62;100.00;101711.25;5017986;28;20281;-81
2024/01/12 01:23:08;;;;;;;89.37;26.67;;;;;;;0.66;100.00;101725.13;5025494;28;20204;-81
2024/01/12 01:25:34;;;;;;;84.20;26.33;;;;;;;0.88;100.00;101720.03;5018078;28;20220;-81
2024/01/12 01:28:01;;;;;;;82.47;25.40;;;;;;;0.78;100.00;101734.19;5017332;28;20208;-80
2024/01/12 01:30:28;;;;;;;87.47;26.67;;;;;;;0.72;100.00;101743.34;5017119;28;20234;-80
2024/01/12 01:32:55;;;;;;;78.97;25.53;;;;;;;0.67;100.00;101753.41;5016939;28;20208;-81
2024/01/12 01:35:22;;;;;;;86.93;25.57;;;;;;;0.71;100.00;101750.16;5017741;28;20234;-81
2024/01/12 01:37:50;;;;;;;81.97;27.43;;;;;;;0.66;100.00;101749.09;5017663;28;20213;-81
2024/01/12 01:40:16;;;;;;;91.07;29.13;;;;;;;0.60;100.00;101748.84;5018090;28;20263;-81
2024/01/12 01:42:47;;;;;;;87.13;28.47;;;;;;;0.68;100.00;101757.75;5017252;28;20673;-82
2024/01/12 01:45:13;;;;;;;93.37;28.83;;;;;;;0.66;100.00;101753.38;5017361;28;20223;-82
2024/01/12 01:47:40;;;;;;;88.87;29.63;;;;;;;0.77;100.00;101755.59;5017008;28;20282;-82
2024/01/12 01:50:10;;;;;;;88.57;28.70;;;;;;;0.81;100.00;101750.56;5013346;28;20200;-80
2024/01/12 01:52:37;;;;;;;84.20;26.67;;;;;;;0.79;100.00;101763.34;5017417;28;20207;-82
2024/01/12 01:55:05;;;;;;;77.37;27.03;;;;;;;0.71;100.00;101777.56;5017273;28;20223;-80
2024/01/12 01:57:34;;;;;;;79.67;26.90;;;;;;;0.74;100.00;101773.44;5017238;28;20718;-80
2024/01/12 02:00:01;;;;;;;75.53;26.60;;;;;;;0.73;100.00;101761.41;5017503;28;20277;-78
2024/01/12 02:02:27;;;;;;;73.10;26.13;;;;;;;0.82;100.00;101758.34;5016829;28;20709;-82
2024/01/12 02:04:58;;;;;;;90.63;26.80;;;;;;;0.82;100.00;101768.63;5016675;28;20207;-79
2024/01/12 02:07:26;;;;;;;70.77;26.60;;;;;;;0.81;100.00;101769.41;5015756;28;20246;-79
2024/01/12 02:09:53;;;;;;;83.70;26.83;;;;;;;0.71;100.00;101767.28;5016431;28;20277;-80
2024/01/12 02:12:19;;;;;;;89.83;28.67;;;;;;;0.65;100.00;101769.59;5017161;28;20207;-81
2024/01/12 02:14:46;;;;;;;83.00;27.50;;;;;;;0.66;100.00;101751.69;5017090;28;20210;-81
2024/01/12 02:17:12;;;;;;;77.87;26.93;;;;;;;0.74;100.00;101754.56;5016776;28;20203;-81
2024/01/12 02:19:38;;;;;;;72.73;26.40;;;;;;;0.77;100.00;101767.53;5016842;28;20278;-79
2024/01/12 02:22:06;;;;;;;82.30;26.63;;;;;;;1.06;100.00;101755.03;5017278;28;20208;-81
2024/01/12 02:24:33;;;;;;;85.20;27.93;;;;;;;0.87;100.00;101763.66;5017184;28;20207;-78
2024/01/12 02:26:59;;;;;;;71.30;25.57;;;;;;;0.75;100.00;101764.94;5016576;28;20232;-81
2024/01/12 02:29:26;;;;;;;84.77;27.47;;;;;;;0.70;100.00;101760.41;5016633;28;20203;-80
2024/01/12 02:31:53;;;;;;;77.83;27.23;;;;;;;0.79;100.00;101743.69;5016582;28;20249;-81
2024/01/12 02:34:19;;;;;;;79.80;26.43;;;;;;;0.74;100.00;101758.00;5016707;28;20257;-80
2024/01/12 02:36:46;;;;;;;80.63;27.07;;;;;;;0.72;100.00;101756.19;5016981;28;20645;-81
2024/01/12 02:39:13;;;;;;;83.67;26.80;;;;;;;0.67;100.00;101753.41;5017978;28;20277;-78
2024/01/12 02:41:40;;;;;;;79.47;27.00;;;;;;;0.67;100.00;101750.84;5025421;28;20202;-80
2024/01/12 02:44:06;;;;;;;87.97;29.07;;;;;;;0.69;100.00;101740.63;5016897;28;20242;-80
2024/01/12 02:46:32;;;;;;;73.07;24.83;;;;;;;0.73;100.00;101733.16;5016769;28;20277;-81
2024/01/12 02:48:59;;;;;;;79.53;28.57;;;;;;;0.67;100.00;101726.84;5016067;28;20241;-81
2024/01/12 02:51:25;;;;;;;72.60;25.23;;;;;;;0.73;100.00;101728.00;5016265;28;20243;-80
2024/01/12 02:53:51;;;;;;;71.33;26.10;;;;;;;0.71;100.00;101724.47;5016631;28;20206;-80
2024/01/12 02:56:19;;;;;;;77.50;27.20;;;;;;;0.70;100.00;101724.44;5016005;28;21072;-81
2024/01/12 02:58:45;;;;;;;85.77;27.37;;;;;;;0.90;100.00;101720.09;5016665;28;20203;-81
2024/01/12 03:01:12;;;;;;;79.47;26.30;;;;;;;0.75;100.00;101710.97;5016804;28;20222;-80
2024/01/12 03:03:38;;;;;;;86.30;26.13;;;;;;;0.79;100.00;101709.38;5016174;28;20199;-80
2024/01/12 03:06:05;;;;;;;70.13;26.30;;;;;;;0.77;100.00;101699.06;5016198;28;20231;-80
2024/01/12 03:08:31;;;;;;;77.03;26.30;;;;;;;0.83;100.00;101712.94;5015505;28;20215;-81
2024/01/12 03:10:58;;;;;;;81.63;26.63;;;;;;;0.85;100.00;101711.31;5016065;28;20215;-81
2024/01/12 03:13:25;;;;;;;77.87;25.50;;;;;;;0.77;100.00;101718.72;5016471;28;20203;-80
2024/01/12 03:15:52;;;;;;;74.00;26.20;;;;;;;0.97;100.00;101706.66;5024770;28;20287;-79
2024/01/12 03:18:18;;;;;;;76.83;25.17;;;;;;;0.89;100.00;101715.78;5024058;28;20207;-79
2024/01/12 03:20:44;;;;;;;80.00;26.20;;;;;;;0.99;100.00;101703.38;5027674;28;20214;-78
2024/01/12 03:23:11;;;;;;;63.13;24.43;;;;;;;0.91;100.00;101717.59;5036833;28;20191;-78
2024/01/12 03:25:37;;;;;;;68.43;26.30;;;;;;;0.85;100.00;101719.91;5027973;28;20219;-82
2024/01/12 03:28:04;;;;;;;63.57;22.67;;;;;;;0.78;100.00;101711.06;4999109;28;20724;-82
2024/01/12 03:30:31;;;;;;;70.53;24.43;;;;;;;1.03;100.00;101701.81;5016291;28;20207;-80
2024/01/12 03:32:58;;;;;;;67.60;25.40;;;;;;;0.94;100.00;101696.28;5016103;28;20732;-83
2024/01/12 03:35:24;;;;;;;65.63;24.80;;;;;;;1.06;100.00;101695.91;5016218;28;20227;-79
2024/01/12 03:37:50;;;;;;;59.70;23.60;;;;;;;0.78;100.00;101703.34;5015896;28;20231;-81
2024/01/12 03:40:17;;;;;;;62.60;23.50;;;;;;;1.03;100.00;101706.03;5017055;28;20218;-81
2024/01/12 03:42:43;;;;;;;67.63;24.07;;;;;;;1.33;100.00;101714.13;5016738;28;20253;-80
2024/01/12 03:45:10;;;;;;;56.73;23.13;;;;;;;0.98;100.00;101729.88;5016844;28;20640;-81
2024/01/12 03:47:38;;;;;;;58.40;23.00;;;;;;;0.97;100.00;101719.53;5014942;28;20199;-81
2024/01/12 03:50:05;;;;;;;67.37;23.67;;;;;;;1.07;100.00;101713.97;5017895;28;20202;-81
2024/01/12 03:52:31;;;;;;;53.67;22.80;;;;;;;0.86;100.00;101720.81;5021368;28;20254;-82
2024/01/12 03:54:57;;;;;;;55.67;22.83;;;;;;;0.89;100.00;101721.81;5016228;28;20272;-81
2024/01/12 03:57:24;;;;;;;52.83;21.50;;;;;;;1.03;100.00;101722.38;5015690;28;20212;-80
2024/01/12 03:59:50;;;;;;;61.60;22.07;;;;;;;1.03;100.00;101736.91;5016644;28;20234;-81
2024/01/12 04:02:16;;;;;;;69.13;23.07;;;;;;;0.99;100.00;101744.50;5015114;28;20203;-81
2024/01/12 04:04:44;;;;;;;49.33;22.07;;;;;;;1.04;100.00;101749.81;5015339;28;20258;-81
2024/01/12 04:07:11;;;;;;;66.97;23.23;;;;;;;1.28;100.00;101755.06;5015743;28;20212;-78
2024/01/12 04:09:37;;;;;;;54.80;21.37;;;;;;;1.19;100.00;101768.47;5016309;28;20223;-81
2024/01/12 04:12:04;;;;;;;49.90;22.17;;;;;;;0.86;100.00;101773.06;5015178;28;20266;-81
2024/01/12 04:14:30;;;;;;;60.20;22.00;;;;;;;1.02;100.00;101766.88;5015571;28;20621;-81
2024/01/12 04:16:56;;;;;;;58.27;22.10;;;;;;;0.88;100.00;101760.28;5014440;28;20228;-81
2024/01/12 04:19:23;;;;;;;55.17;21.50;;;;;;;0.90;100.00;101758.66;5015562;28;20214;-80
2024/01/12 04:21:50;;;;;;;54.27;21.47;;;;;;;0.92;100.00;101762.19;5015364;28;20623;-79
2024/01/12 04:24:17;;;;;;;51.90;22.80;;;;;;;0.92;100.00;101763.06;5014964;28;20204;-81
2024/01/12 04:26:43;;;;;;;46.70;20.90;;;;;;;0.91;100.00;101750.13;5015386;28;20805;-80
2024/01/12 04:29:09;;;;;;;48.10;20.77;;;;;;;1.09;100.00;101763.75;5017248;28;20221;-81
2024/01/12 04:31:39;;;;;;;45.77;21.13;;;;;;;1.11;100.00;101775.00;5019915;28;20252;-81
2024/01/12 04:34:06;;;;;;;48.40;20.10;;;;;;;1.19;100.00;101767.59;5019312;28;20203;-81
2024/01/12 04:36:32;;;;;;;45.73;20.00;;;;;;;1.05;100.00;101771.25;5019299;28;20228;-81
2024/01/12 04:39:00;;;;;;;47.27;18.80;;;;;;;1.00;100.00;101771.09;5018569;28;20212;-81
2024/01/12 04:41:26;;;;;;;57.60;21.47;;;;;;;0.97;100.00;101761.56;5019665;28;20251;-81
2024/01/12 04:43:52;;;;;;;48.97;20.80;;;;;;;0.96;100.00;101751.22;5019240;28;20214;-81
2024/01/12 04:46:19;;;;;;;52.07;20.83;;;;;;;0.99;100.00;101748.75;5018822;28;20226;-80
2024/01/12 04:48:45;;;;;;;44.53;20.13;;;;;;;1.05;100.00;101753.25;5018315;28;20215;-80
2024/01/12 04:51:12;;;;;;;54.00;20.43;;;;;;;0.93;100.00;101746.81;5027169;28;20699;-81
2024/01/12 04:53:38;;;;;;;53.80;20.90;;;;;;;0.96;100.00;101731.50;5019286;28;20200;-81
2024/01/12 04:56:06;;;;;;;45.73;21.23;;;;;;;0.96;100.00;101712.66;5018399;28;20239;-82
2024/01/12 04:58:33;;;;;;;46.77;19.30;;;;;;;0.97;100.00;101709.25;5018787;28;20268;-81
2024/01/12 05:00:59;;;;;;;48.67;20.40;;;;;;;0.98;100.00;101711.88;5018709;28;20314;-82
2024/01/12 05:03:26;;;;;;;46.60;20.03;;;;;;;1.08;100.00;101723.41;5018729;28;20207;-81
2024/01/12 05:05:52;;;;;;;53.67;21.27;;;;;;;0.99;100.00;101726.50;5019229;28;20274;-79
2024/01/12 05:08:20;;;;;;;56.03;20.90;;;;;;;1.28;100.00;101724.22;5018873;28;20222;-81
2024/01/12 05:10:47;;;;;;;46.43;19.63;;;;;;;1.41;100.00;101741.03;5019174;28;20257;-82
2024/01/12 05:13:15;;;;;;;44.43;18.93;;;;;;;1.03;100.00;101752.31;5019453;28;20199;-82
2024/01/12 05:15:41;;;;;;;43.50;17.70;;;;;;;1.28;100.00;101744.78;5019447;28;20223;-82
2024/01/12 05:18:07;;;;;;;42.20;18.90;;;;;;;1.09;100.00;101747.44;5018184;28;20639;-82
2024/01/12 05:20:34;;;;;;;37.77;19.00;;;;;;;1.30;100.00;101752.56;5018337;28;20222;-82
2024/01/12 05:23:00;;;;;;;34.17;19.00;;;;;;;1.18;100.00;101758.09;5018754;28;20703;-80
2024/01/12 05:25:27;;;;;;;35.80;18.67;;;;;;;1.26;100.00;101776.41;5018683;28;20227;-81
2024/01/12 05:27:53;;;;;;;40.23;19.20;;;;;;;1.32;100.00;101777.53;5018618;28;20202;-83
2024/01/12 05:30:21;;;;;;;36.23;17.17;;;;;;;1.06;100.00;101786.75;5018782;28;20207;-82
2024/01/12 05:32:47;;;;;;;48.90;19.80;;;;;;;1.17;100.00;101780.38;5017842;28;20203;-82
2024/01/12 05:35:14;;;;;;;42.23;17.23;;;;;;;1.06;100.00;101773.03;5018391;28;20223;-82
2024/01/12 05:37:40;;;;;;;26.00;16.53;;;;;;;1.09;100.00;101780.84;5018625;28;20683;-81
2024/01/12 05:40:08;;;;;;;31.10;16.83;;;;;;;0.97;100.00;101787.28;5017697;28;20223;-81
2024/01/12 05:42:34;;;;;;;40.30;17.83;;;;;;;1.15;100.00;101781.09;5016687;28;20681;-82
2024/01/12 05:45:00;;;;;;;41.07;17.53;;;;;;;1.24;100.00;101772.91;5017494;28;20299;-82
2024/01/12 05:47:28;;;;;;;36.37;16.17;;;;;;;1.23;100.00;101787.47;5019360;28;20226;-80
2024/01/12 05:49:54;;;;;;;34.27;17.77;;;;;;;0.93;100.00;101789.63;5027745;28;20239;-80
2024/01/12 05:52:21;;;;;;;30.03;17.70;;;;;;;1.19;100.00;101765.03;5018353;28;20660;-81
2024/01/12 05:54:47;;;;;;;34.60;16.23;;;;;;;1.15;100.00;101778.53;5017011;28;20249;-81
2024/01/12 05:57:13;;;;;;;35.83;18.03;;;;;;;1.03;100.00;101784.09;5016869;28;20272;-80
2024/01/12 05:59:40;;;;;;;34.07;16.87;;;;;;;1.49;100.00;101780.81;5016183;28;20253;-79
2024/01/12 06:02:06;;;;;;;41.03;19.17;;;;;;;1.25;100.00;101793.56;5016202;28;20219;-80
2024/01/12 06:04:34;;;;;;;32.07;18.40;;;;;;;1.33;100.00;101794.75;5017056;28;20199;-79
2024/01/12 06:07:00;;;;;;;30.30;19.27;;;;;;;1.20;100.00;101792.47;5016589;28;20237;-81
2024/01/12 06:09:26;;;;;;;40.23;18.80;;;;;;;1.36;100.00;101793.97;5016437;28;20211;-81
2024/01/12 06:11:53;;;;;;;37.47;19.10;;;;;;;1.38;100.00;101793.22;5016538;28;20237;-79
2024/01/12 06:14:19;;;;;;;36.70;18.73;;;;;;;1.60;100.00;101796.66;5016862;28;20206;-79
2024/01/12 06:16:45;;;;;;;43.30;19.20;;;;;;;1.77;100.00;101797.31;5016401;28;20230;-79
2024/01/12 06:19:12;;;;;;;37.23;19.93;;;;;;;1.92;100.00;101820.19;5016723;28;20204;-77
2024/01/12 06:21:40;;;;;;;35.03;17.73;;;;;;;1.98;100.00;101838.44;5016795;28;20292;-82
2024/01/12 06:24:07;;;;;;;31.47;17.57;;;;;;;1.91;100.00;101859.66;5016317;28;20219;-81
2024/01/12 06:26:34;;;;;;;33.00;17.47;;;;;;;2.02;100.00;101872.94;5016241;28;20634;-79
2024/01/12 06:29:00;;;;;;;32.10;17.87;;;;;;;1.72;100.00;101901.78;5016113;28;20690;-79
2024/01/12 06:31:30;;;;;;;26.50;17.30;;;;;;;2.00;100.00;101896.03;5016625;28;20205;-81
2024/01/12 06:33:56;;;;;;;31.90;17.20;;;;;;;2.11;100.00;101907.66;5016230;28;20228;-79
2024/01/12 06:36:22;;;;;;;36.97;18.13;;;;;;;1.87;100.00;101920.44;5017082;28;20227;-80
2024/01/12 06:38:50;;;;;;;38.80;17.77;;;;;;;2.09;100.00;101926.44;5016577;28;20238;-80
2024/01/12 06:41:16;;;;;;;29.97;17.53;;;;;;;2.25;100.00;101933.09;5016566;28;20285;-79
2024/01/12 06:43:43;;;;;;;25.07;16.57;;;;;;;1.85;100.00;101960.69;5016401;28;20208;-81
2024/01/12 06:46:09;;;;;;;27.90;16.27;;;;;;;1.67;100.00;101952.22;5017178;28;20234;-80
2024/01/12 06:48:36;;;;;;;26.17;17.07;;;;;;;1.56;100.00;101936.31;5015656;28;20205;-78
2024/01/12 06:51:02;;;;;;;28.90;17.37;;;;;;;1.62;100.00;101923.69;5016210;28;20276;-79
2024/01/12 06:53:28;;;;;;;27.80;17.03;;;;;;;1.69;100.00;101914.56;5012556;28;20203;-82
2024/01/12 06:55:56;;;;;;;28.97;16.13;;;;;;;1.43;100.00;101911.78;5017265;28;20227;-80
2024/01/12 06:58:23;;;;;;;30.87;16.17;;;;;;;1.49;100.00;101900.88;5008734;28;20234;-81
2024/01/12 07:00:49;;;;;;;28.57;15.73;;;;;;;1.42;100.00;101886.84;5017522;28;20254;-81
2024/01/12 07:03:15;;;;;;;26.77;16.67;;;;;;;1.23;100.00;101898.06;5016032;28;20208;-80
2024/01/12 07:05:42;;;;;;;23.47;14.70;;;;;;;1.30;100.00;101886.34;5016045;28;20293;-81
2024/01/12 07:08:08;;;;;;;22.70;14.50;;;;;;;1.18;100.00;101882.41;5015724;28;20217;-80
2024/01/12 07:10:34;;;;;;;32.70;15.77;;;;;;;1.06;100.00;101875.88;5016990;28;20200;-80
2024/01/12 07:13:02;;;;;;;28.50;15.80;;;;;;;1.22;100.00;101864.56;5016931;28;20287;-82
2024/01/12 07:15:28;;;;;;;27.00;14.57;;;;;;;1.52;100.00;101857.22;5016124;28;20229;-77
2024/01/12 07:17:55;;;;;;;21.27;14.70;;;;;;;1.72;100.00;101870.91;5015542;28;20214;-82
2024/01/12 07:20:21;;;;;;;29.23;15.73;;;;;;;1.68;100.00;101887.91;5014977;28;20229;-79
2024/01/12 07:22:48;;;;;;;36.20;16.50;;;;;;;1.47;100.00;101900.78;5014405;28;20207;-82
2024/01/12 07:25:14;;;;;;;30.03;15.87;;;;;;;1.39;100.00;101912.47;5014265;28;20228;-81
2024/01/12 07:27:40;;;;;;;23.63;16.43;;;;;;;1.59;100.00;101906.44;5015326;28;20215;-80
2024/01/12 07:30:09;;;;;;;27.60;15.87;;;;;;;1.32;100.00;101918.16;5016183;28;20207;-81
2024/01/12 07:32:35;;;;;;;29.70;15.57;;;;;;;1.53;100.00;101906.19;5015332;28;20212;-79
2024/01/12 07:35:02;;;;;;;23.60;14.60;;;;;;;1.54;100.00;101913.06;5016093;28;20290;-80
2024/01/12 07:37:28;;;;;;;29.17;16.27;;;;;;;1.59;100.00;101916.72;5014979;28;20633;-81
2024/01/12 07:39:55;;;;;;;24.80;15.73;;;;;;;1.43;100.00;101924.63;5015862;28;20251;-81
2024/01/12 07:42:21;;;;;;;26.07;15.43;;;;;;;1.24;100.00;101927.22;5016562;28;20228;-81
2024/01/12 07:44:49;;;;;;;28.63;16.17;;;;;;;1.52;100.00;101901.84;5016841;28;20207;-80
2024/01/12 07:47:16;;;;;;;28.73;15.37;;;;;;;1.66;100.00;101917.84;5016047;28;20331;-80
2024/01/12 07:49:43;;;;;;;24.90;15.33;;;;;;;1.42;100.00;101933.16;5016466;28;20203;-81
2024/01/12 07:52:09;;;;;;;21.57;15.43;;;;;;;1.62;100.00;101940.84;5016094;28;20204;-80
2024/01/12 07:54:36;;;;;;;27.87;14.93;;;;;;;1.75;100.00;101961.13;5024404;28;20287;-81
2024/01/12 07:57:02;;;;;;;32.30;15.70;;;;;;;1.84;100.00;101969.22;5015902;28;20649;-81
2024/01/12 07:59:29;;;;;;;31.60;16.97;;;;;;;1.86;100.00;101982.16;5016326;28;20330;-81
2024/01/12 08:01:55;;;;;;;28.27;17.07;;;;;;;1.34;100.00;101994.56;5024532;28;20235;-81
2024/01/12 08:04:24;;;;;;;31.03;16.57;;;;;;;1.38;100.00;101965.56;5020231;28;20236;-81
2024/01/12 08:06:50;;;;;;;24.53;16.03;;;;;;;1.32;100.00;101957.59;5022792;28;20255;-83
2024/01/12 08:09:17;;;;;;;21.77;13.50;;;;;;;0.92;100.00;101935.28;5022617;28;20221;-82
2024/01/12 08:11:43;;;;;;;24.90;16.73;;;;;;;1.13;100.00;101919.94;5022165;28;20201;-80
2024/01/12 08:14:10;;;;;;;29.10;16.17;;;;;;;1.18;100.00;101902.13;5022082;28;20239;-80
2024/01/12 08:16:36;;;;;;;34.27;18.03;;;;;;;1.43;100.00;101913.44;5022735;28;20274;-82
2024/01/12 08:19:02;;;;;;;32.87;17.73;;;;;;;1.35;100.00;101926.00;5021856;28;20205;-81
2024/01/12 08:21:30;;;;;;;37.03;17.57;;;;;;;1.17;100.00;101903.81;5020897;28;20229;-82
2024/01/12 08:23:56;;;;;;;29.93;17.40;;;;;;;1.25;100.00;101893.88;5021191;28;20210;-80
2024/01/12 08:26:23;;;;;;;41.67;18.23;;;;;;;1.19;100.00;101878.19;5021233;28;20227;-79
2024/01/12 08:28:54;;;;;;;36.47;18.10;;;;;;;1.30;100.00;101869.19;5023080;28;20666;-81
2024/01/12 08:31:21;;;;;;;29.23;17.87;;;;;;;1.47;100.00;101871.63;5022372;28;20213;-80
2024/01/12 08:33:49;;;;;;;35.80;18.27;;;;;;;1.58;100.00;101878.06;5021572;28;20200;-80
2024/01/12 08:36:15;;;;;;;30.60;17.27;;;;;;;1.62;100.00;101879.06;5021130;28;20284;-81
2024/01/12 08:38:43;;;;;;;29.13;18.30;;;;;;;1.35;100.00;101902.84;5020672;28;20259;-81
2024/01/12 08:41:09;;;;;;;27.13;17.53;;;;;;;1.53;100.00;101905.31;5022013;28;20604;-81
2024/01/12 08:43:36;;;;;;;27.67;16.93;;;;;;;1.37;100.00;101911.50;5022297;28;20272;-81
2024/01/12 08:46:02;;;;;;;34.53;18.23;;;;;;;1.35;100.00;101895.13;5020599;28;20647;-81
2024/01/12 08:48:29;;;;;;;27.77;17.23;;;;;;;1.56;100.00;101893.44;5021657;28;20217;-81
2024/01/12 08:50:55;;;;;;;27.77;16.03;;;;;;;1.33;100.00;101913.06;5021833;28;20208;-79
2024/01/12 08:53:22;;;;;;;25.03;16.57;;;;;;;1.15;100.00;101907.13;5029309;28;20208;-80
2024/01/12 08:55:49;;;;;;;28.23;17.70;;;;;;;1.29;100.00;101905.13;5020991;28;20220;-81
2024/01/12 08:58:16;;;;;;;28.30;16.60;;;;;;;1.31;100.00;101906.97;5021574;28;20277;-81
2024/01/12 09:00:42;;;;;;;22.90;16.40;;;;;;;1.10;100.00;101895.78;5021522;28;20203;-80
2024/01/12 09:03:09;;;;;;;28.70;17.53;;;;;;;1.15;100.00;101886.53;5020543;28;20309;-81
2024/01/12 09:05:35;;;;;;;30.70;17.37;;;;;;;1.33;100.00;101871.91;5021353;28;20265;-82
2024/01/12 09:08:01;;;;;;;26.77;16.07;;;;;;;1.37;100.00;101862.63;5019085;28;20271;-83
2024/01/12 09:10:28;;;;;;;29.30;16.27;;;;;;;1.46;100.00;101870.72;5014558;28;20235;-85
2024/01/12 09:12:55;;;;;;;32.17;15.40;;;;;;;1.28;100.00;101877.66;5022029;28;20301;-85
2024/01/12 09:15:22;;;;;;;28.70;16.07;;;;;;;1.45;100.00;101881.84;5021187;28;20251;-85
2024/01/12 09:17:48;;;;;;;24.90;15.87;;;;;;;1.30;100.00;101900.06;5018118;28;20205;-82
2024/01/12 09:20:15;;;;;;;32.47;15.43;;;;;;;1.61;100.00;101897.91;5018680;28;20261;-83
2024/01/12 09:22:41;;;;;;;26.83;15.80;;;;;;;1.27;100.00;101919.63;5019329;28;20322;-84
2024/01/12 09:25:08;;;;;;;28.40;17.63;;;;;;;1.46;100.00;101908.44;5018224;28;20280;-85
2024/01/12 09:27:35;;;;;;;28.93;15.47;;;;;;;1.50;100.00;101912.91;5018057;28;20199;-82
2024/01/12 09:30:02;;;;;;;36.93;16.83;;;;;;;1.79;100.00;101914.09;5018432;28;20211;-83
2024/01/12 09:32:29;;;;;;;29.73;15.93;;;;;;;1.87;99.78;101945.31;5017472;28;20268;-83
2024/01/12 09:34:55;;;;;;;26.60;15.77;;;;;;;1.63;99.56;101969.22;5017025;28;20747;-82
2024/01/12 09:37:22;;;;;;;27.13;16.17;;;;;;;1.73;99.67;101970.50;5018470;28;20218;-82
2024/01/12 09:39:48;;;;;;;25.33;16.07;;;;;;;1.69;98.63;101982.34;5019273;28;20557;-80
2024/01/12 09:42:17;;;;;;;21.47;15.77;;;;;;;1.87;98.69;101982.22;5018457;28;20318;-82
2024/01/12 09:44:45;;;;;;;28.53;17.57;;;;;;;1.35;99.06;101983.47;5018207;28;20210;-82
2024/01/12 09:47:13;;;;;;;28.00;16.63;;;;;;;1.38;100.00;101972.44;5018672;28;20208;-81
2024/01/12 09:49:42;;;;;;;34.80;19.20;;;;;;;1.43;100.00;101967.47;5018322;28;20269;-81
2024/01/12 09:52:08;;;;;;;24.10;16.80;;;;;;;1.48;99.46;101960.84;5017752;28;20369;-82
2024/01/12 09:54:35;;;;;;;29.67;17.67;;;;;;;1.55;100.00;101968.03;5018040;28;20254;-79
2024/01/12 09:57:02;;;;;;;37.40;19.43;;;;;;;1.56;98.68;101978.34;5017644;28;20231;-80
2024/01/12 09:59:29;;;;;;;31.37;17.03;;;;;;;1.64;98.59;101990.69;5017182;28;20212;-80
2024/01/12 10:01:58;;;;;;;34.70;17.60;;;;;;;1.65;98.43;101993.31;5018178;28;20231;-80
2024/01/12 10:04:26;;;;;;;25.33;16.30;;;;;;;1.44;98.33;102000.13;5018956;28;20204;-79
2024/01/12 10:06:53;;;;;;;28.17;16.97;;;;;;;1.36;97.86;102000.66;5018337;28;20314;-81
2024/01/12 10:09:21;;;;;;;29.33;16.67;;;;;;;1.38;97.98;102003.28;5017838;28;20243;-82
2024/01/12 10:11:47;;;;;;;28.13;18.33;;;;;;;1.61;98.37;101982.84;5017248;28;20572;-79
2024/01/12 10:14:20;;;;;;;21.50;16.73;;;;;;;1.74;97.28;101990.25;5034922;28;20195;-79
2024/01/12 10:16:53;;;;;;;24.37;15.20;;;;;;;1.28;97.41;102011.44;5017447;28;20227;-81
2024/01/12 10:19:19;;;;;;;24.77;15.80;;;;;;;1.44;97.68;102003.56;5018403;28;20240;-80
2024/01/12 10:21:47;;;;;;;18.83;15.20;;;;;;;1.63;97.38;101988.94;5017961;28;20288;-81
2024/01/12 10:24:17;;;;;;;22.93;16.47;;;;;;;1.73;96.47;101999.69;5017255;28;20227;-78
2024/01/12 10:26:43;;;;;;;24.07;14.90;;;;;;;1.39;97.62;102002.50;5017998;28;20234;-80
2024/01/12 10:29:10;;;;;;;17.67;14.60;;;;;;;1.55;98.03;101986.03;5017286;28;20658;-81
2024/01/12 10:31:40;;;;;;;21.13;16.00;;;;;;;1.55;97.11;101980.88;5017697;28;20207;-80
2024/01/12 10:34:11;;;;;;;24.73;15.73;;;;;;;1.66;97.39;101963.31;5017728;28;20587;-78
2024/01/12 10:36:38;;;;;;;21.33;15.30;;;;;;;1.57;97.53;101959.53;5017797;28;20287;-78
2024/01/12 10:39:07;;;;;;;17.50;14.37;;;;;;;1.63;97.13;101970.91;5016663;28;20651;-79
2024/01/12 10:41:34;;;;;;;18.37;13.57;;;;;;;1.58;97.62;101966.44;5016006;28;20619;-80
2024/01/12 10:44:04;;;;;;;22.17;13.67;;;;;;;1.56;97.74;101962.91;5017014;28;20217;-80
2024/01/12 10:46:35;;;;;;;20.30;13.93;;;;;;;1.51;97.16;101956.72;5017639;28;20227;-80
2024/01/12 10:49:07;;;;;;;18.73;13.33;;;;;;;1.76;97.00;101958.63;5016990;28;20241;-81
2024/01/12 10:51:38;;;;;;;21.93;14.77;;;;;;;1.77;98.01;101956.94;5009390;28;20207;-81
2024/01/12 10:54:13;;;;;;;20.07;13.13;;;;;;;1.72;97.23;101958.41;5017664;28;20211;-80
2024/01/12 10:56:42;;;;;;;24.23;12.47;;;;;;;1.38;98.84;101947.56;5017810;28;20220;-81
2024/01/12 10:59:08;;;;;;;16.37;12.50;;;;;;;1.36;99.50;101917.47;5017454;28;20294;-80
2024/01/12 11:01:35;;;;;;;17.40;12.50;;;;;;;1.34;100.00;101896.81;5017720;28;20207;-80
2024/01/12 11:04:03;;;;;;;16.33;13.10;;;;;;;1.36;100.00;101887.47;5016480;28;20289;-81
2024/01/12 11:06:30;;;;;;;18.80;12.47;;;;;;;1.65;99.52;101889.50;5016926;28;20226;-80